Time;durP1;ratioP1;P1;durP2;ratioP2;P2;SDS_P1;SDS_P2;PMS_P1;PMS_P2;Temp;Humidity;BMP_temperature;BMP_pressure;BME280_temperature;BME280_humidity;BME280_pressure;Samples;Min_cycle;Max_cycle;Signal;HPM_P1;HPM_P2
2022/02/12 00:28:36;;;;;;;;;;;;;;;;;;;;;
2022/02/12 01:39:53;;;;;;;27.60;12.30;;;;;;;;;;4372911;27;20442;-74
2022/02/12 01:42:18;;;;;;;;;;;;;;;;;;4357466;32;20035;-74
2022/02/12 01:44:44;;;;;;;26.25;11.93;;;;;;;;;;4369172;32;19981;-75
2022/02/12 01:47:09;;;;;;;;;;;;;;;;;;4405287;32;20152;-74
2022/02/12 01:49:34;;;;;;;25.23;12.88;;;;;;;;;;4419625;32;19937;-74
2022/02/12 01:51:59;;;;;;;27.67;12.27;;;;;;;;;;4418867;32;20026;-74
2022/02/12 01:54:25;;;;;;;;;;;;;;;;;;4417961;32;20157;-75
2022/02/12 01:56:50;;;;;;;33.83;12.75;;;;;;;;;;4405008;32;19953;-75
2022/02/12 01:59:15;;;;;;;;;;;;;;;;;;4418423;32;20081;-75
2022/02/12 02:01:41;;;;;;;34.55;12.90;;;;;;;;;;4419227;32;19933;-74
2022/02/12 02:04:06;;;;;;;;;;;;;;;;;;4419322;32;20208;-74
2022/02/12 02:06:31;;;;;;;26.60;14.07;;;;;;;;;;4418983;32;20014;-75
2022/02/12 02:08:57;;;;;;;28.95;13.07;;;;;;;;;;4419508;32;20410;-74
2022/02/12 02:11:22;;;;;;;;;;;;;;;;;;4413646;32;20021;-74
2022/02/12 02:13:47;;;;;;;42.95;12.82;;;;;;;;;;4403808;32;19983;-74
2022/02/12 02:16:13;;;;;;;30.85;13.90;;;;;;;;;;4418094;32;20104;-74
2022/02/12 02:18:39;;;;;;;36.33;13.93;;;;;;;;;;4418046;32;20034;-74
2022/02/12 02:21:04;;;;;;;;;;;;;;;;;;4417806;32;20449;-74
2022/02/12 02:23:30;;;;;;;32.12;14.16;;;;;;;;;;4417855;32;20357;-73
2022/02/12 02:25:55;;;;;;;;;;;;;;;;;;4405473;32;20021;-75
2022/02/12 02:28:20;;;;;;;33.53;13.43;;;;;;;;;;4419236;32;19994;-73
2022/02/12 02:30:45;;;;;;;;;;;;;;;;;;4422665;32;20290;-74
2022/02/12 02:33:10;;;;;;;26.87;12.48;;;;;;;;;;4421032;32;20245;-74
2022/02/12 02:35:36;;;;;;;29.55;11.98;;;;;;;;;;4418654;32;20022;-74
2022/02/12 02:38:01;;;;;;;;;;;;;;;;;;4419266;32;20331;-74
2022/02/12 02:40:26;;;;;;;26.00;11.70;;;;;;;;;;4432972;32;20295;-74
2022/02/12 02:42:51;;;;;;;;;;;;;;;;;;4437865;32;20378;-75
2022/02/12 02:45:16;;;;;;;;;;;;;;;;;;4437449;32;19936;-74
2022/02/12 02:47:42;;;;;;;;;;;;;;;;;;4436052;32;19977;-74
2022/02/12 02:55:59;;;;;;;;;;;;;;;;;;4435638;32;19937;-75
2022/02/12 02:58:20;;;;;;;;;;;;;;;;;;4428912;32;19973;-74
2022/02/12 03:00:45;;;;;;;;;;;;;;;;;;4407674;32;19949;-74
2022/02/12 03:03:10;;;;;;;;;;;;;;;;;;4432571;32;20036;-74
2022/02/12 03:05:35;;;;;;;;;;;;;;;;;;4436515;32;19997;-74
2022/02/12 03:08:00;;;;;;;;;;;;;;;;;;4421815;32;19953;-74
2022/02/12 03:10:25;;;;;;;;;;;;;;;;;;4421047;32;19940;-74
2022/02/12 03:12:50;;;;;;;;;;;;;;;;;;4435906;32;20328;-74
2022/02/12 03:15:16;;;;;;;;;;;;;;;;;;4437550;32;19974;-74
2022/02/12 03:17:41;;;;;;;;;;;;;;;;;;4436828;32;20305;-74
2022/02/12 03:20:07;;;;;;;;;;;;;;;;;;4436747;32;19937;-73
2022/02/12 03:22:32;;;;;;;;;;;;;;;;;;4435274;32;19933;-74
2022/02/12 03:24:58;;;;;;;;;;;;;;;;;;4435324;32;19940;-74
2022/02/12 03:27:23;;;;;;;;;;;;;;;;;;4435301;32;19969;-74
2022/02/12 03:29:48;;;;;;;;;;;;;;;;;;4435362;32;20319;-75
2022/02/12 03:32:13;;;;;;;;;;;;;;;;;;4436475;32;19932;-74
2022/02/12 03:34:38;;;;;;;;;;;;;;;;;;4422558;32;19932;-74
2022/02/12 03:37:03;;;;;;;;;;;;;;;;;;4427903;32;20116;-75
2022/02/12 03:39:28;;;;;;;;;;;;;;;;;;4430077;32;19969;-74
2022/02/12 03:41:53;;;;;;;;;;;;;;;;;;4420940;32;19937;-74
2022/02/12 03:44:18;;;;;;;;;;;;;;;;;;4420725;32;19994;-75
2022/02/12 03:46:43;;;;;;;;;;;;;;;;;;4419797;32;19948;-75
2022/02/12 03:49:08;;;;;;;;;;;;;;;;;;4436153;32;20018;-74
2022/02/12 03:51:34;;;;;;;;;;;;;;;;;;4434439;32;20051;-74
2022/02/12 03:53:59;;;;;;;;;;;;;;;;;;4434711;32;19998;-73
2022/02/12 03:56:24;;;;;;;;;;;;;;;;;;4435971;32;19937;-73
2022/02/12 03:58:49;;;;;;;;;;;;;;;;;;4436011;32;20290;-73
2022/02/12 04:01:14;;;;;;;;;;;;;;;;;;4435766;32;19959;-74
2022/02/12 04:03:39;;;;;;;;;;;;;;;;;;4434468;32;19947;-74
2022/02/12 04:06:04;;;;;;;;;;;;;;;;;;4416117;32;20106;-74
2022/02/12 04:08:29;;;;;;;;;;;;;;;;;;4421197;32;19991;-74
2022/02/12 04:10:54;;;;;;;;;;;;;;;;;;4420800;32;19948;-74
2022/02/12 04:13:19;;;;;;;;;;;;;;;;;;4405463;32;19943;-74
2022/02/12 04:15:45;;;;;;;;;;;;;;;;;;4419868;32;20264;-74
2022/02/12 04:18:10;;;;;;;;;;;;;;;;;;4418870;32;20040;-73
2022/02/12 04:20:35;;;;;;;;;;;;;;;;;;4409589;32;19936;-74
2022/02/12 04:23:00;;;;;;;;;;;;;;;;;;4434454;32;20315;-74
2022/02/12 04:25:26;;;;;;;;;;;;;;;;;;4434277;32;19994;-74
2022/02/12 04:27:52;;;;;;;;;;;;;;;;;;4420155;32;20318;-73
2022/02/12 04:30:17;;;;;;;;;;;;;;;;;;4419843;32;19933;-74
2022/02/12 04:32:42;;;;;;;;;;;;;;;;;;4421294;32;19983;-74
2022/02/12 04:35:07;;;;;;;;;;;;;;;;;;4433586;32;19932;-75
2022/02/12 04:37:32;;;;;;;;;;;;;;;;;;4434559;32;19984;-74
2022/02/12 04:39:57;;;;;;;;;;;;;;;;;;4433734;32;20326;-74
2022/02/12 04:42:22;;;;;;;;;;;;;;;;;;4435896;32;19933;-74
2022/02/12 04:44:47;;;;;;;;;;;;;;;;;;4420388;32;20110;-74
2022/02/12 04:47:13;;;;;;;;;;;;;;;;;;4436334;32;19937;-75
2022/02/12 04:49:38;;;;;;;;;;;;;;;;;;4435816;32;19941;-74
2022/02/12 04:52:03;;;;;;;;;;;;;;;;;;4434607;32;20058;-74
2022/02/12 04:54:28;;;;;;;;;;;;;;;;;;4433037;32;19937;-75
2022/02/12 04:56:53;;;;;;;;;;;;;;;;;;4434996;32;19937;-74
2022/02/12 04:59:18;;;;;;;;;;;;;;;;;;4433633;32;19932;-74
2022/02/12 05:01:43;;;;;;;;;;;;;;;;;;4433860;32;19949;-74
2022/02/12 05:04:08;;;;;;;;;;;;;;;;;;4419350;32;19937;-74
2022/02/12 05:06:33;;;;;;;;;;;;;;;;;;4434042;32;20266;-75
2022/02/12 05:08:58;;;;;;;;;;;;;;;;;;4434767;32;19970;-74
2022/02/12 05:11:24;;;;;;;;;;;;;;;;;;4433625;32;19941;-74
2022/02/12 05:13:49;;;;;;;;;;;;;;;;;;4420124;32;20086;-74
2022/02/12 05:16:14;;;;;;;;;;;;;;;;;;4435337;32;19953;-74
2022/02/12 05:18:39;;;;;;;;;;;;;;;;;;4434965;32;19971;-74
2022/02/12 05:21:04;;;;;;;;;;;;;;;;;;4434338;32;20090;-75
2022/02/12 05:23:29;;;;;;;;;;;;;;;;;;4434600;32;19947;-73
2022/02/12 05:25:54;;;;;;;;;;;;;;;;;;4434491;32;19979;-73
2022/02/12 05:28:19;;;;;;;;;;;;;;;;;;4433979;32;19949;-72
2022/02/12 05:30:44;;;;;;;;;;;;;;;;;;4434445;32;19933;-74
2022/02/12 05:33:09;;;;;;;;;;;;;;;;;;4433936;32;19941;-73
2022/02/12 05:35:34;;;;;;;;;;;;;;;;;;4435147;32;20223;-74
2022/02/12 05:37:59;;;;;;;;;;;;;;;;;;4435139;32;19932;-74
2022/02/12 05:40:24;;;;;;;;;;;;;;;;;;4437103;32;19936;-74
2022/02/12 05:42:49;;;;;;;;;;;;;;;;;;4434650;32;20297;-74
2022/02/12 05:45:15;;;;;;;;;;;;;;;;;;4434024;32;19968;-74
2022/02/12 05:47:40;;;;;;;;;;;;;;;;;;4432814;32;19955;-74
2022/02/12 05:50:05;;;;;;;;;;;;;;;;;;4420824;32;20101;-73
2022/02/12 05:52:30;;;;;;;;;;;;;;;;;;4432634;32;19965;-73
2022/02/12 05:54:55;;;;;;;;;;;;;;;;;;4433035;32;19943;-74
2022/02/12 05:57:20;;;;;;;;;;;;;;;;;;4418617;32;20356;-73
2022/02/12 05:59:45;;;;;;;;;;;;;;;;;;4433426;32;19951;-73
2022/02/12 06:02:10;;;;;;;;;;;;;;;;;;4432447;32;19966;-73
2022/02/12 06:04:36;;;;;;;;;;;;;;;;;;4433067;32;19937;-73
2022/02/12 06:07:01;;;;;;;;;;;;;;;;;;4434869;32;19944;-73
2022/02/12 06:09:26;;;;;;;;;;;;;;;;;;4433328;32;20299;-74
2022/02/12 06:11:51;;;;;;;;;;;;;;;;;;4436118;32;19967;-75
2022/02/12 06:14:16;;;;;;;;;;;;;;;;;;4436178;32;19944;-74
2022/02/12 06:16:42;;;;;;;;;;;;;;;;;;4433838;32;19973;-74
2022/02/12 06:19:07;;;;;;;;;;;;;;;;;;4432823;32;19933;-74
2022/02/12 06:21:32;;;;;;;;;;;;;;;;;;4433194;32;19941;-73
2022/02/12 06:23:57;;;;;;;;;;;;;;;;;;4418680;32;19997;-73
2022/02/12 06:26:22;;;;;;;;;;;;;;;;;;4420957;32;19950;-73
2022/02/12 06:28:47;;;;;;;;;;;;;;;;;;4434168;32;19936;-73
2022/02/12 06:31:12;;;;;;;;;;;;;;;;;;4431753;32;19967;-74
2022/02/12 06:33:37;;;;;;;;;;;;;;;;;;4417053;32;19958;-73
2022/02/12 06:36:02;;;;;;;;;;;;;;;;;;4431762;32;19999;-73
2022/02/12 06:38:27;;;;;;;;;;;;;;;;;;4434229;32;19945;-74
2022/02/12 06:40:52;;;;;;;;;;;;;;;;;;4432554;32;19933;-75
2022/02/12 06:43:17;;;;;;;;;;;;;;;;;;4432882;32;19936;-73
2022/02/12 06:45:43;;;;;;;;;;;;;;;;;;4433911;32;19948;-73
2022/02/12 06:48:08;;;;;;;;;;;;;;;;;;4434230;32;19933;-74
2022/02/12 06:50:33;;;;;;;;;;;;;;;;;;4432651;32;20037;-74
2022/02/12 06:52:58;;;;;;;;;;;;;;;;;;4434256;32;19955;-74
2022/02/12 06:55:23;;;;;;;;;;;;;;;;;;4432902;32;20051;-74
2022/02/12 06:57:48;;;;;;;;;;;;;;;;;;4433056;32;20082;-73
2022/02/12 07:00:14;;;;;;;;;;;;;;;;;;4416305;32;20345;-74
2022/02/12 07:02:39;;;;;;;;;;;;;;;;;;4433724;32;19951;-73
2022/02/12 07:05:04;;;;;;;;;;;;;;;;;;4438101;32;19966;-74
2022/02/12 07:07:29;;;;;;;;;;;;;;;;;;4441636;32;19945;-74
2022/02/12 07:09:54;;;;;;;;;;;;;;;;;;4435597;32;19974;-73
2022/02/12 07:12:19;;;;;;;;;;;;;;;;;;4432784;32;19944;-74
2022/02/12 07:14:45;;;;;;;;;;;;;;;;;;4432570;32;20021;-74
2022/02/12 07:17:10;;;;;;;;;;;;;;;;;;4433751;32;20298;-72
2022/02/12 07:19:37;;;;;;;;;;;;;;;;;;4432648;32;20023;-74
2022/02/12 07:22:02;;;;;;;;;;;;;;;;;;4433946;32;19968;-74
2022/02/12 07:24:27;;;;;;;;;;;;;;;;;;4432290;32;19992;-73
2022/02/12 07:26:52;;;;;;;;;;;;;;;;;;4433769;32;20083;-73
2022/02/12 07:29:17;;;;;;;;;;;;;;;;;;4436143;32;19959;-73
2022/02/12 07:31:42;;;;;;;;;;;;;;;;;;4435633;32;20025;-73
2022/02/12 07:34:12;;;;;;;;;;;;;;;;;;4435435;32;19937;-73
2022/02/12 07:36:37;;;;;;;;;;;;;;;;;;4422353;32;20031;-73
2022/02/12 07:39:02;;;;;;;;;;;;;;;;;;4435894;32;19933;-74
2022/02/12 07:41:33;;;;;;;;;;;;;;;;;;4421814;32;19937;-73
2022/02/12 07:43:59;;;;;;;;;;;;;;;;;;4436980;32;19963;-73
2022/02/12 07:46:24;;;;;;;;;;;;;;;;;;4436318;32;19937;-75
2022/02/12 07:48:49;;;;;;;;;;;;;;;;;;4434959;32;20022;-75
2022/02/12 07:51:14;;;;;;;;;;;;;;;;;;4433504;32;19944;-74
2022/02/12 07:53:39;;;;;;;;;;;;;;;;;;4436057;32;19952;-73
2022/02/12 07:56:04;;;;;;;;;;;;;;;;;;4434623;32;19940;-74
2022/02/12 07:58:30;;;;;;;;;;;;;;;;;;4434334;32;19980;-74
2022/02/12 08:00:55;;;;;;;;;;;;;;;;;;4435703;32;19971;-75
2022/02/12 08:03:20;;;;;;;;;;;;;;;;;;4435101;32;20258;-74
2022/02/12 08:05:45;;;;;;;;;;;;;;;;;;4420869;32;19944;-74
2022/02/12 08:08:10;;;;;;;;;;;;;;;;;;4434565;32;19933;-74
2022/02/12 08:13:19;;;;;;;;;;;;;;;;;;4435968;32;19972;-74
2022/02/12 08:15:44;;;;;;;;;;;;;;;;;;4435354;32;19941;-75
2022/02/12 08:18:09;;;;;;;;;;;;;;;;;;4418193;32;20341;-73
2022/02/12 08:20:34;;;;;;;;;;;;;;;;;;4435918;32;19936;-75
2022/02/12 08:22:59;;;;;;;;;;;;;;;;;;4433616;32;19977;-75
2022/02/12 08:25:24;;;;;;;;;;;;;;;;;;4413593;32;20573;-73
2022/02/12 08:27:50;;;;;;;;;;;;;;;;;;4433824;32;19941;-75
2022/02/12 08:30:15;;;;;;;;;;;;;;;;;;4435544;32;20069;-74
2022/02/12 08:32:41;;;;;;;;;;;;;;;;;;4418016;32;19937;-74
2022/02/12 08:35:07;;;;;;;;;;;;;;;;;;4434322;32;20300;-73
2022/02/12 08:37:32;;;;;;;;;;;;;;;;;;4435201;32;19980;-74
2022/02/12 08:39:57;;;;;;;;;;;;;;;;;;4434006;32;20008;-73
2022/02/12 08:42:22;;;;;;;;;;;;;;;;;;4434116;32;20079;-74
2022/02/12 08:44:47;;;;;;;;;;;;;;;;;;4432073;32;20313;-75
2022/02/12 08:47:12;;;;;;;;;;;;;;;;;;4412735;32;19987;-74
2022/02/12 08:49:37;;;;;;;;;;;;;;;;;;4419031;32;19963;-74
2022/02/12 08:52:02;;;;;;;;;;;;;;;;;;4428521;32;20043;-73
2022/02/12 08:54:27;;;;;;;;;;;;;;;;;;4435400;32;20302;-73
2022/02/12 08:56:52;;;;;;;;;;;;;;;;;;4420799;32;19984;-73
2022/02/12 08:59:18;;;;;;;;;;;;;;;;;;4434181;32;19937;-73
2022/02/12 09:01:43;;;;;;;;;;;;;;;;;;4419748;32;19965;-74
2022/02/12 09:04:08;;;;;;;;;;;;;;;;;;4433778;32;19952;-72
2022/02/12 09:06:33;;;;;;;;;;;;;;;;;;4434317;32;20001;-74
2022/02/12 09:08:58;;;;;;;;;;;;;;;;;;4433548;32;19970;-74
2022/02/12 09:11:25;;;;;;;;;;;;;;;;;;4435312;32;19933;-74
2022/02/12 09:13:51;;;;;;;;;;;;;;;;;;4436216;32;19940;-74
2022/02/12 09:16:16;;;;;;;;;;;;;;;;;;4437844;32;19951;-74
2022/02/12 09:18:41;;;;;;;;;;;;;;;;;;4423207;32;20117;-74
2022/02/12 09:21:06;;;;;;;;;;;;;;;;;;4436354;32;20349;-74
2022/02/12 09:23:32;;;;;;;;;;;;;;;;;;4434397;32;19971;-73
2022/02/12 09:25:57;;;;;;;;;;;;;;;;;;4435592;32;19937;-74
2022/02/12 09:28:22;;;;;;;;;;;;;;;;;;4433616;32;20003;-74
2022/02/12 09:30:47;;;;;;;;;;;;;;;;;;4433594;32;19937;-75
2022/02/12 09:33:12;;;;;;;;;;;;;;;;;;4435069;32;19972;-74
2022/02/12 09:35:37;;;;;;;;;;;;;;;;;;4435293;32;19996;-75
2022/02/12 09:38:02;;;;;;;;;;;;;;;;;;4435058;32;19968;-74
2022/02/12 09:40:27;;;;;;;;;;;;;;;;;;4435720;32;19955;-75
2022/02/12 09:42:52;;;;;;;;;;;;;;;;;;4434481;32;19937;-76
2022/02/12 09:45:18;;;;;;;;;;;;;;;;;;4435145;32;19944;-75
2022/02/12 09:47:43;;;;;;;;;;;;;;;;;;4434353;32;19933;-73
2022/02/12 09:50:08;;;;;;;;;;;;;;;;;;4433797;32;19976;-74
2022/02/12 09:52:33;;;;;;;;;;;;;;;;;;4433032;32;20203;-74
2022/02/12 09:54:59;;;;;;;;;;;;;;;;;;4420726;32;19945;-76
2022/02/12 09:57:24;;;;;;;;;;;;;;;;;;4415419;32;19989;-75
2022/02/12 09:59:49;;;;;;;;;;;;;;;;;;4434086;32;19983;-74
2022/02/12 10:02:14;;;;;;;;;;;;;;;;;;4433797;32;19993;-74
2022/02/12 10:04:39;;;;;;;;;;;;;;;;;;4418596;32;19988;-74
2022/02/12 10:07:04;;;;;;;;;;;;;;;;;;4433001;32;19956;-75
2022/02/12 10:09:29;;;;;;;;;;;;;;;;;;4434001;32;19951;-74
2022/02/12 10:11:54;;;;;;;;;;;;;;;;;;4434410;32;19984;-73
2022/02/12 10:14:19;;;;;;;;;;;;;;;;;;4420035;32;20365;-74
2022/02/12 10:16:45;;;;;;;;;;;;;;;;;;4433527;32;19971;-73
2022/02/12 10:19:10;;;;;;;;;;;;;;;;;;4434043;32;20318;-74
2022/02/12 10:21:35;;;;;;;;;;;;;;;;;;4433391;32;19956;-74
2022/02/12 10:24:00;;;;;;;;;;;;;;;;;;4419426;32;20035;-74
2022/02/12 10:26:30;;;;;;;;;;;;;;;;;;4419531;32;19972;-74
2022/02/12 10:29:01;;;;;;;;;;;;;;;;;;4419116;32;19940;-75
2022/02/12 10:31:27;;;;;;;;;;;;;;;;;;4434012;32;19973;-74
2022/02/12 10:33:53;;;;;;;;;;;;;;;;;;4436265;32;19972;-73
2022/02/12 10:36:18;;;;;;;;;;;;;;;;;;4434118;32;20024;-74
2022/02/12 10:38:43;;;;;;;;;;;;;;;;;;4434493;32;19990;-74
2022/02/12 10:41:08;;;;;;;;;;;;;;;;;;4433927;32;19937;-74
2022/02/12 10:43:34;;;;;;;;;;;;;;;;;;4435202;32;19936;-74
2022/02/12 10:45:59;;;;;;;;;;;;;;;;;;4417023;32;19941;-73
2022/02/12 10:48:24;;;;;;;;;;;;;;;;;;4424341;32;20295;-74
2022/02/12 10:50:49;;;;;;;;;;;;;;;;;;4434342;32;19937;-74
2022/02/12 10:53:14;;;;;;;;;;;;;;;;;;4434474;32;19948;-74
2022/02/12 10:55:39;;;;;;;;;;;;;;;;;;4422490;32;20299;-74
2022/02/12 10:58:04;;;;;;;;;;;;;;;;;;4434171;32;19941;-74
2022/02/12 11:00:30;;;;;;;;;;;;;;;;;;4419989;32;19996;-74
2022/02/12 11:02:55;;;;;;;;;;;;;;;;;;4436291;32;19945;-74
2022/02/12 11:05:20;;;;;;;;;;;;;;;;;;4437129;32;19941;-74
2022/02/12 11:07:45;;;;;;;;;;;;;;;;;;4437311;32;19933;-74
2022/02/12 11:10:10;;;;;;;;;;;;;;;;;;4423870;32;19947;-74
2022/02/12 11:12:35;;;;;;;;;;;;;;;;;;4436194;32;19933;-73
2022/02/12 11:15:00;;;;;;;;;;;;;;;;;;4437591;32;19996;-73
2022/02/12 11:17:31;;;;;;;;;;;;;;;;;;4437036;32;19932;-75
2022/02/12 11:19:56;;;;;;;;;;;;;;;;;;4423087;32;19955;-74
2022/02/12 11:22:21;;;;;;;;;;;;;;;;;;4436591;32;20075;-75
2022/02/12 11:24:46;;;;;;;;;;;;;;;;;;4437874;32;19945;-75
2022/02/12 11:27:11;;;;;;;;;;;;;;;;;;4440505;32;19968;-74
2022/02/12 11:29:40;;;;;;;;;;;;;;;;;;4440224;32;19937;-74
2022/02/12 11:32:06;;;;;;;;;;;;;;;;;;4439307;32;19933;-73
2022/02/12 11:34:31;;;;;;;;;;;;;;;;;;4437231;32;19952;-74
2022/02/12 11:36:56;;;;;;;;;;;;;;;;;;4423175;32;19956;-73
2022/02/12 11:39:21;;;;;;;;;;;;;;;;;;4437858;32;19937;-73
2022/02/12 11:41:46;;;;;;;;;;;;;;;;;;4436781;32;19941;-72
2022/02/12 11:44:11;;;;;;;;;;;;;;;;;;4437769;32;20056;-72
2022/02/12 11:46:36;;;;;;;;;;;;;;;;;;4422480;32;19940;-71
2022/02/12 11:49:01;;;;;;;;;;;;;;;;;;4438894;32;19952;-72
2022/02/12 11:51:26;;;;;;;;;;;;;;;;;;4437568;32;20289;-71
2022/02/12 11:53:54;;;;;;;;;;;;;;;;;;4438631;32;19932;-72
2022/02/12 11:56:19;;;;;;;;;;;;;;;;;;4436744;32;19951;-72
2022/02/12 11:58:45;;;;;;;;;;;;;;;;;;4438325;32;19933;-72
2022/02/12 12:01:10;;;;;;;;;;;;;;;;;;4436365;32;20381;-74
2022/02/12 12:03:35;;;;;;;;;;;;;;;;;;4436561;32;19952;-72
2022/02/12 12:06:00;;;;;;;;;;;;;;;;;;4437274;32;19944;-71
2022/02/12 12:08:25;;;;;;;;;;;;;;;;;;4421161;32;19951;-71
2022/02/12 12:10:51;;;;;;;;;;;;;;;;;;4437174;32;19940;-71
2022/02/12 12:13:16;;;;;;;;;;;;;;;;;;4422196;32;19929;-71
2022/02/12 12:15:41;;;;;;;;;;;;;;;;;;4435303;32;20310;-72
2022/02/12 12:18:08;;;;;;;;;;;;;;;;;;4437331;32;20124;-72
2022/02/12 12:20:33;;;;;;;;;;;;;;;;;;4419379;32;20012;-73
2022/02/12 12:22:58;;;;;;;;;;;;;;;;;;4421653;32;19941;-71
2022/02/12 12:25:24;;;;;;;;;;;;;;;;;;4421943;32;19951;-73
2022/02/12 12:27:49;;;;;;;;;;;;;;;;;;4435657;32;19978;-73
2022/02/12 12:32:58;;;;;;;;;;;;;;;;;;4435611;32;19951;-72
2022/02/12 12:35:23;;;;;;;;;;;;;;;;;;4433949;32;20294;-73
2022/02/12 12:37:51;;;;;;;;;;;;;;;;;;4434758;32;19933;-72
2022/02/12 12:40:17;;;;;;;;;;;;;;;;;;4418605;32;20310;-73
2022/02/12 12:42:42;;;;;;;;;;;;;;;;;;4419993;32;20087;-72
2022/02/12 12:45:11;;;;;;;;;;;;;;;;;;4422147;32;19979;-71
2022/02/12 12:47:36;;;;;;;;;;;;;;;;;;4420377;32;19932;-70
2022/02/12 12:50:01;;;;;;;;;;;;;;;;;;4422303;32;19956;-70
2022/02/12 12:52:26;;;;;;;;;;;;;;;;;;4432239;32;19941;-71
2022/02/12 12:54:52;;;;;;;;;;;;;;;;;;4420455;32;20033;-71
2022/02/12 12:57:17;;;;;;;;;;;;;;;;;;4434468;32;19932;-71
2022/02/12 12:59:42;;;;;;;;;;;;;;;;;;4434680;32;20094;-71
2022/02/12 13:02:08;;;;;;;;;;;;;;;;;;4433815;32;19933;-70
2022/02/12 13:04:33;;;;;;;;;;;;;;;;;;4435000;32;19964;-71
2022/02/12 13:06:58;;;;;;;;;;;;;;;;;;4434139;32;19943;-70
2022/02/12 13:09:23;;;;;;;;;;;;;;;;;;4421287;32;19937;-71
2022/02/12 13:11:48;;;;;;;;;;;;;;;;;;4434376;32;19937;-69
2022/02/12 13:14:13;;;;;;;;;;;;;;;;;;4435959;32;20259;-72
2022/02/12 13:16:38;;;;;;;;;;;;;;;;;;4435430;32;19937;-71
2022/02/12 13:19:04;;;;;;;;;;;;;;;;;;4433948;32;19933;-72
2022/02/12 13:21:29;;;;;;;;;;;;;;;;;;4424181;32;20362;-71
2022/02/12 13:23:54;;;;;;;;;;;;;;;;;;4420209;32;19988;-71
2022/02/12 13:26:19;;;;;;;;;;;;;;;;;;4434300;32;19976;-71
2022/02/12 13:28:44;;;;;;;;;;;;;;;;;;4434547;32;19955;-70
2022/02/12 13:31:09;;;;;;;;;;;;;;;;;;4437188;32;19933;-71
2022/02/12 13:33:34;;;;;;;;;;;;;;;;;;4435152;32;20334;-71
2022/02/12 13:35:59;;;;;;;;;;;;;;;;;;4429730;32;19978;-72
2022/02/12 13:38:24;;;;;;;;;;;;;;;;;;4422028;32;19936;-71
2022/02/12 13:40:49;;;;;;;;;;;;;;;;;;4435559;32;20005;-70
2022/02/12 13:43:28;;;;;;;;;;;;;;;;;;4437579;32;19961;-72
2022/02/12 13:45:53;;;;;;;;;;;;;;;;;;4428883;32;19978;-71
2022/02/12 13:48:23;;;;;;;;;;;;;;;;;;4440920;32;19944;-70
2022/02/12 13:50:48;;;;;;;;;;;;;;;;;;4436694;32;19953;-71
2022/02/12 13:53:13;;;;;;;;;;;;;;;;;;4436892;32;19932;-71
2022/02/12 13:55:38;;;;;;;;;;;;;;;;;;4436863;32;19966;-72
2022/02/12 13:58:03;;;;;;;;;;;;;;;;;;4436664;32;20027;-71
2022/02/12 14:00:29;;;;;;;;;;;;;;;;;;4438329;32;19945;-71
2022/02/12 14:02:54;;;;;;;;;;;;;;;;;;4438903;32;19932;-72
2022/02/12 14:05:19;;;;;;;;;;;;;;;;;;4421110;32;19951;-71
2022/02/12 14:07:45;;;;;;;;;;;;;;;;;;4423140;32;19970;-71
2022/02/12 14:10:10;;;;;;;;;;;;;;;;;;4423809;32;19928;-71
2022/02/12 14:12:36;;;;;;;;;;;;;;;;;;4422505;32;19959;-72
2022/02/12 14:15:01;;;;;;;;;;;;;;;;;;4438416;32;19988;-71
2022/02/12 14:17:26;;;;;;;;;;;;;;;;;;4437644;32;19944;-71
2022/02/12 14:19:51;;;;;;;;;;;;;;;;;;4435664;32;20355;-72
2022/02/12 14:22:16;;;;;;;;;;;;;;;;;;4437144;32;19950;-72
2022/02/12 14:24:41;;;;;;;;;;;;;;;;;;4435208;32;19988;-71
2022/02/12 14:27:06;;;;;;;;;;;;;;;;;;4436523;32;19933;-71
2022/02/12 14:29:31;;;;;;;;;;;;;;;;;;4436145;32;20310;-71
2022/02/12 14:31:56;;;;;;;;;;;;;;;;;;4421923;32;20083;-71
2022/02/12 14:34:21;;;;;;;;;;;;;;;;;;4436509;32;19933;-73
2022/02/12 14:36:47;;;;;;;;;;;;;;;;;;4421838;32;19952;-71
2022/02/12 14:39:12;;;;;;;;;;;;;;;;;;4433989;32;19936;-71
2022/02/12 14:41:37;;;;;;;;;;;;;;;;;;4434982;32;19948;-71
2022/02/12 14:44:02;;;;;;;;;;;;;;;;;;4434143;32;20305;-71
2022/02/12 14:46:29;;;;;;;;;;;;;;;;;;4436258;32;20310;-72
2022/02/12 14:48:54;;;;;;;;;;;;;;;;;;4436146;32;20254;-71
2022/02/12 14:51:19;;;;;;;;;;;;;;;;;;4435885;32;20204;-70
2022/02/12 14:53:45;;;;;;;;;;;;;;;;;;4436597;32;20000;-71
2022/02/12 14:56:10;;;;;;;;;;;;;;;;;;4435081;32;20044;-71
2022/02/12 14:58:35;;;;;;;;;;;;;;;;;;4422329;32;19967;-72
2022/02/12 15:01:00;;;;;;;;;;;;;;;;;;4435616;32;19941;-71
2022/02/12 15:03:25;;;;;;;;;;;;;;;;;;4435201;32;19944;-71
2022/02/12 15:05:50;;;;;;;;;;;;;;;;;;4434421;32;19937;-72
2022/02/12 15:08:15;;;;;;;;;;;;;;;;;;4434575;32;20261;-71
2022/02/12 15:10:41;;;;;;;;;;;;;;;;;;4433883;32;19933;-72
2022/02/12 15:13:06;;;;;;;;;;;;;;;;;;4434826;32;19956;-72
2022/02/12 15:15:31;;;;;;;;;;;;;;;;;;4434604;32;19970;-72
2022/02/12 15:17:56;;;;;;;;;;;;;;;;;;4432593;32;20318;-71
2022/02/12 15:20:21;;;;;;;;;;;;;;;;;;4434784;32;19933;-71
2022/02/12 15:22:46;;;;;;;;;;;;;;;;;;4406051;32;19996;-71
2022/02/12 15:25:11;;;;;;;;;;;;;;;;;;4406627;32;20005;-71
2022/02/12 15:27:36;;;;;;;;;;;;;;;;;;4409047;32;19988;-71
2022/02/12 15:30:01;;;;;;;;;;;;;;;;;;4434902;32;19937;-72
2022/02/12 15:32:27;;;;;;;;;;;;;;;;;;4426043;32;19937;-73
2022/02/12 15:34:52;;;;;;;;;;;;;;;;;;4442953;32;19990;-72
2022/02/12 15:37:18;;;;;;;;;;;;;;;;;;4450911;32;19955;-72
2022/02/12 15:39:43;;;;;;;;;;;;;;;;;;4435341;32;19941;-72
2022/02/12 15:42:08;;;;;;;;;;;;;;;;;;4435765;32;19932;-72
2022/02/12 15:44:33;;;;;;;;;;;;;;;;;;4451480;32;19967;-74
2022/02/12 15:46:58;;;;;;;;;;;;;;;;;;4433314;32;19940;-74
2022/02/12 15:49:24;;;;;;;;;;;;;;;;;;4421375;32;19974;-74
2022/02/12 15:51:49;;;;;;;;;;;;;;;;;;4436876;32;19932;-70
2022/02/12 15:54:14;;;;;;;;;;;;;;;;;;4436175;32;20261;-70
2022/02/12 15:56:39;;;;;;;;;;;;;;;;;;4438353;32;19945;-71
2022/02/12 15:59:04;;;;;;;;;;;;;;;;;;4441811;32;20316;-73
2022/02/12 16:01:29;;;;;;;;;;;;;;;;;;4427080;32;19944;-73
2022/02/12 16:03:54;;;;;;;;;;;;;;;;;;4438056;32;19943;-72
2022/02/12 16:06:19;;;;;;;;;;;;;;;;;;4438041;32;19967;-71
2022/02/12 16:08:44;;;;;;;;;;;;;;;;;;4437266;32;19969;-72
2022/02/12 16:11:09;;;;;;;;;;;;;;;;;;4424094;32;19940;-73
2022/02/12 16:13:36;;;;;;;;;;;;;;;;;;4436482;32;20283;-72
2022/02/12 16:16:03;;;;;;;;;;;;;;;;;;4434976;32;19940;-72
2022/02/12 16:18:28;;;;;;;;;;;;;;;;;;4434664;32;20020;-72
2022/02/12 16:20:54;;;;;;;;;;;;;;;;;;4435291;32;19983;-73
2022/02/12 16:23:19;;;;;;;;;;;;;;;;;;4434744;32;19966;-72
2022/02/12 16:25:44;;;;;;;;;;;;;;;;;;4436857;32;20314;-72
2022/02/12 16:28:09;;;;;;;;;;;;;;;;;;4420601;32;19967;-72
2022/02/12 16:30:34;;;;;;;;;;;;;;;;;;4435257;32;19941;-71
2022/02/12 16:32:59;;;;;;;;;;;;;;;;;;4433103;32;19951;-71
2022/02/12 16:35:24;;;;;;;;;;;;;;;;;;4436340;32;19941;-71
2022/02/12 16:37:51;;;;;;;;;;;;;;;;;;4434795;32;19984;-71
2022/02/12 16:40:16;;;;;;;;;;;;;;;;;;4434344;32;20284;-71
2022/02/12 16:42:41;;;;;;;;;;;;;;;;;;4436566;32;19936;-72
2022/02/12 16:45:06;;;;;;;;;;;;;;;;;;4437256;32;19945;-72
2022/02/12 16:47:31;;;;;;;;;;;;;;;;;;4435279;32;20251;-72
2022/02/12 16:49:57;;;;;;;;;;;;;;;;;;4434659;32;20302;-72
2022/02/12 16:52:22;;;;;;;;;;;;;;;;;;4435510;32;19975;-71
2022/02/12 16:54:49;;;;;;;;;;;;;;;;;;4433392;32;19933;-71
2022/02/12 16:57:15;;;;;;;;;;;;;;;;;;4434700;32;19974;-71
2022/02/12 16:59:40;;;;;;;;;;;;;;;;;;4420028;32;19941;-71
2022/02/12 17:02:05;;;;;;;;;;;;;;;;;;4443728;32;19960;-72
2022/02/12 17:04:30;;;;;;;;;;;;;;;;;;4408287;32;19945;-72
2022/02/12 17:06:55;;;;;;;;;;;;;;;;;;4435497;32;20314;-72
2022/02/12 17:09:20;;;;;;;;;;;;;;;;;;4433268;32;19974;-72
2022/02/12 17:11:46;;;;;;;;;;;;;;;;;;4433836;32;19945;-72
2022/02/12 17:14:11;;;;;;;;;;;;;;;;;;4435252;32;19941;-71
2022/02/12 17:16:36;;;;;;;;;;;;;;;;;;4419966;32;20295;-72
2022/02/12 17:19:01;;;;;;;;;;;;;;;;;;4426060;32;19993;-72
2022/02/12 17:21:26;;;;;;;;;;;;;;;;;;4433933;32;19936;-70
2022/02/12 17:23:52;;;;;;;;;;;;;;;;;;4420177;32;19957;-71
2022/02/12 17:26:17;;;;;;;;;;;;;;;;;;4421055;32;19970;-71
2022/02/12 17:28:42;;;;;;;;;;;;;;;;;;4434699;32;19968;-72
2022/02/12 17:31:07;;;;;;;;;;;;;;;;;;4433934;32;19959;-71
2022/02/12 17:33:33;;;;;;;;;;;;;;;;;;4441636;32;20032;-72
2022/02/12 17:35:58;;;;;;;;;;;;;;;;;;4433284;32;20023;-71
2022/02/12 17:38:23;;;;;;;;;;;;;;;;;;4434293;32;19951;-71
2022/02/12 17:40:48;;;;;;;;;;;;;;;;;;4420123;32;19948;-70
2022/02/12 17:43:14;;;;;;;;;;;;;;;;;;4435909;32;19943;-70
2022/02/12 17:45:39;;;;;;;;;;;;;;;;;;4421204;32;20359;-71
2022/02/12 17:48:04;;;;;;;;;;;;;;;;;;4436343;32;19947;-71
2022/02/12 17:50:29;;;;;;;;;;;;;;;;;;4436682;32;19964;-71
2022/02/12 17:52:54;;;;;;;;;;;;;;;;;;4436521;32;19933;-72
2022/02/12 17:55:20;;;;;;;;;;;;;;;;;;4436196;32;19946;-71
2022/02/12 17:57:45;;;;;;;;;;;;;;;;;;4438394;32;19959;-72
2022/02/12 18:00:10;;;;;;;;;;;;;;;;;;4438506;32;19937;-71
2022/02/12 18:02:35;;;;;;;;;;;;;;;;;;4436112;32;19937;-71
2022/02/12 18:05:00;;;;;;;;;;;;;;;;;;4436280;32;19937;-70
2022/02/12 18:07:26;;;;;;;;;;;;;;;;;;4434810;32;19933;-70
2022/02/12 18:09:51;;;;;;;;;;;;;;;;;;4436855;32;19945;-71
2022/02/12 18:12:16;;;;;;;;;;;;;;;;;;4436358;32;19988;-72